sensor_id;sensor_type;location;lat;lon;timestamp;pressure;altitude;pressure_sealevel;temperature;humidity
13800;BME280;6971;50.028;9.258;2022-07-11T00:03:46;100122.34;;;13.88;100.00
13800;BME280;6971;50.028;9.258;2022-07-11T00:08:47;100112.78;;;13.86;100.00
13800;BME280;6971;50.028;9.258;2022-07-11T00:13:48;100107.69;;;13.82;100.00
13800;BME280;6971;50.028;9.258;2022-07-11T00:18:50;100107.00;;;13.79;100.00
13800;BME280;6971;50.028;9.258;2022-07-11T00:23:51;100111.53;;;13.77;100.00
13800;BME280;6971;50.028;9.258;2022-07-11T00:28:52;100107.28;;;13.74;100.00
13800;BME280;6971;50.028;9.258;2022-07-11T00:33:54;100108.81;;;13.78;100.00
13800;BME280;6971;50.028;9.258;2022-07-11T00:38:55;100100.84;;;13.78;100.00
13800;BME280;6971;50.028;9.258;2022-07-11T00:43:58;100101.97;;;13.74;100.00
13800;BME280;6971;50.028;9.258;2022-07-11T00:48:59;100095.66;;;13.77;100.00
13800;BME280;6971;50.028;9.258;2022-07-11T00:54:01;100095.72;;;13.75;100.00
13800;BME280;6971;50.028;9.258;2022-07-11T00:59:02;100085.06;;;13.77;100.00
13800;BME280;6971;50.028;9.258;2022-07-11T01:04:04;100079.91;;;13.74;100.00
13800;BME280;6971;50.028;9.258;2022-07-11T01:09:05;100083.69;;;13.69;100.00
13800;BME280;6971;50.028;9.258;2022-07-11T01:14:06;100079.69;;;13.62;100.00
13800;BME280;6971;50.028;9.258;2022-07-11T01:19:07;100088.38;;;13.64;100.00
13800;BME280;6971;50.028;9.258;2022-07-11T01:24:08;100074.56;;;13.59;100.00
13800;BME280;6971;50.028;9.258;2022-07-11T01:29:13;100073.19;;;13.52;100.00
13800;BME280;6971;50.028;9.258;2022-07-11T01:34:14;100067.19;;;13.64;100.00
13800;BME280;6971;50.028;9.258;2022-07-11T01:39:15;100064.19;;;13.70;100.00
13800;BME280;6971;50.028;9.258;2022-07-11T01:44:17;100060.50;;;13.73;100.00
13800;BME280;6971;50.028;9.258;2022-07-11T01:49:18;100065.13;;;13.69;100.00
13800;BME280;6971;50.028;9.258;2022-07-11T01:54:19;100064.47;;;13.66;100.00
13800;BME280;6971;50.028;9.258;2022-07-11T01:59:19;100059.34;;;13.63;100.00
13800;BME280;6971;50.028;9.258;2022-07-11T02:04:21;100049.59;;;13.63;100.00
13800;BME280;6971;50.028;9.258;2022-07-11T02:09:22;100060.19;;;13.63;100.00
13800;BME280;6971;50.028;9.258;2022-07-11T02:14:23;100055.00;;;13.62;100.00
13800;BME280;6971;50.028;9.258;2022-07-11T02:19:32;100049.59;;;13.63;100.00
13800;BME280;6971;50.028;9.258;2022-07-11T02:24:33;100055.16;;;13.58;100.00
13800;BME280;6971;50.028;9.258;2022-07-11T02:29:33;100053.53;;;13.56;100.00
13800;BME280;6971;50.028;9.258;2022-07-11T02:34:35;100048.41;;;13.53;100.00
13800;BME280;6971;50.028;9.258;2022-07-11T02:39:36;100044.91;;;13.52;100.00
13800;BME280;6971;50.028;9.258;2022-07-11T02:44:37;100039.63;;;13.52;100.00
13800;BME280;6971;50.028;9.258;2022-07-11T02:49:37;100048.53;;;13.51;100.00
13800;BME280;6971;50.028;9.258;2022-07-11T02:54:39;100040.47;;;13.53;100.00
13800;BME280;6971;50.028;9.258;2022-07-11T02:59:39;100046.47;;;13.56;100.00
13800;BME280;6971;50.028;9.258;2022-07-11T03:04:40;100049.41;;;13.66;100.00
13800;BME280;6971;50.028;9.258;2022-07-11T03:09:42;100041.66;;;13.63;100.00
13800;BME280;6971;50.028;9.258;2022-07-11T03:14:44;100039.00;;;13.63;100.00
13800;BME280;6971;50.028;9.258;2022-07-11T03:19:46;100033.72;;;13.63;100.00
13800;BME280;6971;50.028;9.258;2022-07-11T03:24:50;100036.28;;;13.65;100.00
13800;BME280;6971;50.028;9.258;2022-07-11T03:29:52;100035.41;;;13.64;100.00
13800;BME280;6971;50.028;9.258;2022-07-11T03:34:53;100037.97;;;13.66;100.00
13800;BME280;6971;50.028;9.258;2022-07-11T03:40:13;100032.09;;;13.61;100.00
13800;BME280;6971;50.028;9.258;2022-07-11T03:45:14;100046.25;;;13.60;100.00
13800;BME280;6971;50.028;9.258;2022-07-11T03:50:16;100039.19;;;13.60;100.00
13800;BME280;6971;50.028;9.258;2022-07-11T03:55:17;100043.28;;;13.66;100.00
13800;BME280;6971;50.028;9.258;2022-07-11T04:00:18;100034.41;;;13.51;100.00
13800;BME280;6971;50.028;9.258;2022-07-11T04:05:20;100042.09;;;13.72;100.00
13800;BME280;6971;50.028;9.258;2022-07-11T04:10:21;100035.31;;;13.82;100.00
13800;BME280;6971;50.028;9.258;2022-07-11T04:15:22;100038.53;;;13.87;100.00
13800;BME280;6971;50.028;9.258;2022-07-11T04:20:23;100038.53;;;13.87;100.00
13800;BME280;6971;50.028;9.258;2022-07-11T04:25:25;100038.19;;;13.93;100.00
13800;BME280;6971;50.028;9.258;2022-07-11T04:30:25;100040.63;;;13.96;100.00
13800;BME280;6971;50.028;9.258;2022-07-11T04:35:26;100044.25;;;13.95;100.00
13800;BME280;6971;50.028;9.258;2022-07-11T04:40:28;100037.81;;;14.00;100.00
13800;BME280;6971;50.028;9.258;2022-07-11T04:45:29;100036.88;;;14.01;100.00
13800;BME280;6971;50.028;9.258;2022-07-11T04:50:30;100032.06;;;14.07;100.00
13800;BME280;6971;50.028;9.258;2022-07-11T04:55:31;100037.69;;;14.17;100.00
13800;BME280;6971;50.028;9.258;2022-07-11T05:00:32;100039.44;;;14.02;100.00
13800;BME280;6971;50.028;9.258;2022-07-11T05:05:33;100039.38;;;14.18;100.00
13800;BME280;6971;50.028;9.258;2022-07-11T05:10:34;100045.09;;;14.41;100.00
13800;BME280;6971;50.028;9.258;2022-07-11T05:15:37;100049.94;;;14.49;100.00
13800;BME280;6971;50.028;9.258;2022-07-11T05:20:39;100054.97;;;14.54;100.00
13800;BME280;6971;50.028;9.258;2022-07-11T05:25:40;100053.34;;;14.51;100.00
13800;BME280;6971;50.028;9.258;2022-07-11T05:30:41;100051.38;;;14.69;100.00
13800;BME280;6971;50.028;9.258;2022-07-11T05:35:43;100058.94;;;14.75;100.00
13800;BME280;6971;50.028;9.258;2022-07-11T05:40:44;100066.22;;;14.57;100.00
13800;BME280;6971;50.028;9.258;2022-07-11T05:45:45;100071.22;;;14.78;100.00
13800;BME280;6971;50.028;9.258;2022-07-11T05:50:45;100059.91;;;14.74;100.00
13800;BME280;6971;50.028;9.258;2022-07-11T05:55:46;100073.75;;;14.94;100.00
13800;BME280;6971;50.028;9.258;2022-07-11T06:00:47;100070.94;;;14.97;100.00
13800;BME280;6971;50.028;9.258;2022-07-11T06:05:48;100066.72;;;15.08;100.00
13800;BME280;6971;50.028;9.258;2022-07-11T06:10:50;100067.78;;;15.05;100.00
13800;BME280;6971;50.028;9.258;2022-07-11T06:15:51;100072.00;;;15.37;100.00
13800;BME280;6971;50.028;9.258;2022-07-11T06:20:52;100067.09;;;15.31;100.00
13800;BME280;6971;50.028;9.258;2022-07-11T06:25:54;100067.66;;;15.36;100.00
13800;BME280;6971;50.028;9.258;2022-07-11T06:30:55;100071.97;;;15.51;100.00
13800;BME280;6971;50.028;9.258;2022-07-11T06:35:56;100074.97;;;15.60;100.00
13800;BME280;6971;50.028;9.258;2022-07-11T06:40:57;100073.38;;;15.57;100.00
13800;BME280;6971;50.028;9.258;2022-07-11T06:45:58;100071.13;;;15.51;100.00
13800;BME280;6971;50.028;9.258;2022-07-11T06:51:11;100073.28;;;15.59;100.00
13800;BME280;6971;50.028;9.258;2022-07-11T06:56:12;100076.50;;;15.91;100.00
13800;BME280;6971;50.028;9.258;2022-07-11T07:01:13;100075.38;;;15.81;100.00
13800;BME280;6971;50.028;9.258;2022-07-11T07:06:15;100078.59;;;16.14;100.00
13800;BME280;6971;50.028;9.258;2022-07-11T07:11:16;100075.56;;;16.46;100.00
13800;BME280;6971;50.028;9.258;2022-07-11T07:16:16;100081.41;;;16.51;95.86
13800;BME280;6971;50.028;9.258;2022-07-11T07:21:17;100081.44;;;16.77;94.98
13800;BME280;6971;50.028;9.258;2022-07-11T07:26:18;100082.47;;;16.88;91.64
13800;BME280;6971;50.028;9.258;2022-07-11T07:31:20;100082.44;;;17.01;91.43
13800;BME280;6971;50.028;9.258;2022-07-11T07:36:20;100081.84;;;16.84;91.93
13800;BME280;6971;50.028;9.258;2022-07-11T07:41:21;100082.22;;;17.30;89.92
13800;BME280;6971;50.028;9.258;2022-07-11T07:46:22;100086.44;;;17.70;86.03
13800;BME280;6971;50.028;9.258;2022-07-11T07:51:23;100086.63;;;17.55;85.92
13800;BME280;6971;50.028;9.258;2022-07-11T07:56:25;100078.69;;;17.67;84.23
13800;BME280;6971;50.028;9.258;2022-07-11T08:01:26;100089.00;;;17.96;82.80
13800;BME280;6971;50.028;9.258;2022-07-11T08:06:36;100088.09;;;18.08;81.27
13800;BME280;6971;50.028;9.258;2022-07-11T08:11:37;100089.25;;;18.29;80.10
13800;BME280;6971;50.028;9.258;2022-07-11T08:16:38;100085.28;;;18.34;77.90
13800;BME280;6971;50.028;9.258;2022-07-11T08:21:39;100086.97;;;18.24;80.27
13800;BME280;6971;50.028;9.258;2022-07-11T08:26:49;100090.34;;;18.26;77.99
13800;BME280;6971;50.028;9.258;2022-07-11T08:31:50;100082.66;;;18.57;78.38
13800;BME280;6971;50.028;9.258;2022-07-11T08:36:51;100082.19;;;18.75;77.06
13800;BME280;6971;50.028;9.258;2022-07-11T08:41:52;100077.34;;;18.80;76.28
13800;BME280;6971;50.028;9.258;2022-07-11T08:46:56;100077.09;;;18.60;78.61
13800;BME280;6971;50.028;9.258;2022-07-11T08:51:58;100075.03;;;18.98;75.85
13800;BME280;6971;50.028;9.258;2022-07-11T08:57:15;100074.19;;;18.98;73.73
13800;BME280;6971;50.028;9.258;2022-07-11T09:02:17;100078.81;;;19.18;73.68
13800;BME280;6971;50.028;9.258;2022-07-11T09:07:19;100076.75;;;18.99;75.63
13800;BME280;6971;50.028;9.258;2022-07-11T09:12:20;100078.66;;;18.74;75.38
13800;BME280;6971;50.028;9.258;2022-07-11T09:17:28;100075.41;;;18.94;75.54
13800;BME280;6971;50.028;9.258;2022-07-11T09:22:33;100080.13;;;18.90;73.82
13800;BME280;6971;50.028;9.258;2022-07-11T09:28:00;100077.69;;;18.87;74.40
13800;BME280;6971;50.028;9.258;2022-07-11T09:33:07;100070.56;;;19.10;72.46
13800;BME280;6971;50.028;9.258;2022-07-11T09:38:13;100073.84;;;19.69;69.91
13800;BME280;6971;50.028;9.258;2022-07-11T09:43:24;100075.41;;;20.16;67.08
13800;BME280;6971;50.028;9.258;2022-07-11T09:48:29;100073.03;;;20.44;65.67
13800;BME280;6971;50.028;9.258;2022-07-11T09:53:30;100070.81;;;20.50;65.22
13800;BME280;6971;50.028;9.258;2022-07-11T09:58:32;100067.41;;;20.05;67.41
13800;BME280;6971;50.028;9.258;2022-07-11T10:03:32;100072.78;;;20.47;66.78
13800;BME280;6971;50.028;9.258;2022-07-11T10:08:34;100065.09;;;20.33;65.96
13800;BME280;6971;50.028;9.258;2022-07-11T10:13:35;100055.81;;;21.31;62.75
13800;BME280;6971;50.028;9.258;2022-07-11T10:18:45;100050.06;;;20.94;62.56
13800;BME280;6971;50.028;9.258;2022-07-11T10:29:01;100057.81;;;20.88;63.21
13800;BME280;6971;50.028;9.258;2022-07-11T10:34:11;100071.59;;;20.40;64.13
13800;BME280;6971;50.028;9.258;2022-07-11T10:39:22;100066.44;;;20.48;65.11
13800;BME280;6971;50.028;9.258;2022-07-11T10:49:51;100076.91;;;20.52;63.37
13800;BME280;6971;50.028;9.258;2022-07-11T10:55:34;100065.94;;;20.86;62.40
13800;BME280;6971;50.028;9.258;2022-07-11T11:00:36;100067.56;;;21.69;59.39
13800;BME280;6971;50.028;9.258;2022-07-11T11:05:41;100066.16;;;20.94;62.24
13800;BME280;6971;50.028;9.258;2022-07-11T11:10:45;100069.75;;;20.83;62.71
13800;BME280;6971;50.028;9.258;2022-07-11T11:31:12;100076.47;;;20.56;64.89
13800;BME280;6971;50.028;9.258;2022-07-11T11:36:16;100077.91;;;21.13;63.31
13800;BME280;6971;50.028;9.258;2022-07-11T11:41:26;100073.88;;;20.88;61.78
13800;BME280;6971;50.028;9.258;2022-07-11T11:46:29;100080.63;;;20.39;64.63
13800;BME280;6971;50.028;9.258;2022-07-11T11:51:31;100081.66;;;20.27;64.12
13800;BME280;6971;50.028;9.258;2022-07-11T11:56:34;100077.81;;;20.19;65.10
13800;BME280;6971;50.028;9.258;2022-07-11T12:01:38;100088.56;;;20.29;65.54
13800;BME280;6971;50.028;9.258;2022-07-11T12:06:41;100075.94;;;20.10;66.27
13800;BME280;6971;50.028;9.258;2022-07-11T12:11:47;100080.22;;;20.22;67.07
13800;BME280;6971;50.028;9.258;2022-07-11T12:16:48;100077.53;;;20.65;64.22
13800;BME280;6971;50.028;9.258;2022-07-11T12:21:52;100072.38;;;20.73;63.23
13800;BME280;6971;50.028;9.258;2022-07-11T12:26:57;100067.34;;;21.11;62.79
13800;BME280;6971;50.028;9.258;2022-07-11T12:32:11;100073.69;;;21.10;63.07
13800;BME280;6971;50.028;9.258;2022-07-11T12:37:20;100069.75;;;21.24;62.60
13800;BME280;6971;50.028;9.258;2022-07-11T12:42:32;100066.13;;;21.25;61.40
13800;BME280;6971;50.028;9.258;2022-07-11T12:47:35;100067.38;;;21.21;62.32
13800;BME280;6971;50.028;9.258;2022-07-11T12:52:38;100067.25;;;21.43;62.61
13800;BME280;6971;50.028;9.258;2022-07-11T12:57:39;100064.72;;;21.41;62.11
13800;BME280;6971;50.028;9.258;2022-07-11T13:02:41;100063.31;;;21.37;62.77
13800;BME280;6971;50.028;9.258;2022-07-11T13:07:42;100064.25;;;21.26;62.82
13800;BME280;6971;50.028;9.258;2022-07-11T13:13:17;100061.84;;;21.13;63.09
13800;BME280;6971;50.028;9.258;2022-07-11T13:18:21;100061.28;;;21.19;63.72
13800;BME280;6971;50.028;9.258;2022-07-11T13:23:22;100060.66;;;21.57;61.34
13800;BME280;6971;50.028;9.258;2022-07-11T13:28:23;100053.16;;;21.50;62.24
13800;BME280;6971;50.028;9.258;2022-07-11T13:33:27;100052.34;;;22.09;59.49
13800;BME280;6971;50.028;9.258;2022-07-11T13:38:28;100050.81;;;21.97;59.81
13800;BME280;6971;50.028;9.258;2022-07-11T13:43:29;100054.31;;;22.27;59.18
13800;BME280;6971;50.028;9.258;2022-07-11T13:48:31;100055.47;;;22.04;58.11
13800;BME280;6971;50.028;9.258;2022-07-11T13:53:32;100053.34;;;22.08;58.77
13800;BME280;6971;50.028;9.258;2022-07-11T13:58:33;100064.25;;;21.77;60.67
13800;BME280;6971;50.028;9.258;2022-07-11T14:03:34;100057.16;;;21.66;59.86
13800;BME280;6971;50.028;9.258;2022-07-11T14:08:35;100056.72;;;22.00;57.30
13800;BME280;6971;50.028;9.258;2022-07-11T14:13:36;100053.75;;;22.23;57.76
13800;BME280;6971;50.028;9.258;2022-07-11T14:18:36;100050.31;;;22.61;56.71
13800;BME280;6971;50.028;9.258;2022-07-11T14:23:38;100046.72;;;22.02;58.66
13800;BME280;6971;50.028;9.258;2022-07-11T14:28:39;100034.84;;;21.95;56.99
13800;BME280;6971;50.028;9.258;2022-07-11T14:33:40;100043.31;;;22.20;57.92
13800;BME280;6971;50.028;9.258;2022-07-11T14:38:41;100028.16;;;22.39;57.42
13800;BME280;6971;50.028;9.258;2022-07-11T14:43:42;100027.50;;;22.75;55.57
13800;BME280;6971;50.028;9.258;2022-07-11T14:48:44;100024.91;;;22.83;55.41
13800;BME280;6971;50.028;9.258;2022-07-11T14:53:46;100024.19;;;22.43;55.70
13800;BME280;6971;50.028;9.258;2022-07-11T14:58:47;100037.84;;;21.92;57.44
13800;BME280;6971;50.028;9.258;2022-07-11T15:03:48;100031.69;;;22.29;56.02
13800;BME280;6971;50.028;9.258;2022-07-11T15:08:50;100026.66;;;22.64;56.01
13800;BME280;6971;50.028;9.258;2022-07-11T15:14:11;100031.50;;;22.51;56.64
13800;BME280;6971;50.028;9.258;2022-07-11T15:19:20;100038.53;;;22.04;58.60
13800;BME280;6971;50.028;9.258;2022-07-11T15:24:22;100035.81;;;22.14;57.42
13800;BME280;6971;50.028;9.258;2022-07-11T15:29:24;100029.97;;;22.58;56.76
13800;BME280;6971;50.028;9.258;2022-07-11T15:34:26;100035.97;;;22.12;57.93
13800;BME280;6971;50.028;9.258;2022-07-11T15:39:27;100029.81;;;22.60;57.19
13800;BME280;6971;50.028;9.258;2022-07-11T15:44:28;100020.22;;;22.47;56.37
13800;BME280;6971;50.028;9.258;2022-07-11T15:49:29;100023.53;;;22.21;57.67
13800;BME280;6971;50.028;9.258;2022-07-11T15:54:30;100031.34;;;21.95;59.53
13800;BME280;6971;50.028;9.258;2022-07-11T15:59:31;100033.97;;;21.65;58.23
13800;BME280;6971;50.028;9.258;2022-07-11T16:04:34;100033.31;;;21.73;57.62
13800;BME280;6971;50.028;9.258;2022-07-11T16:09:35;100034.84;;;22.15;56.86
13800;BME280;6971;50.028;9.258;2022-07-11T16:14:37;100041.09;;;22.63;56.33
13800;BME280;6971;50.028;9.258;2022-07-11T16:19:38;100033.84;;;22.74;55.72
13800;BME280;6971;50.028;9.258;2022-07-11T16:24:39;100038.00;;;22.48;56.89
13800;BME280;6971;50.028;9.258;2022-07-11T16:29:40;100048.94;;;22.17;57.43
13800;BME280;6971;50.028;9.258;2022-07-11T16:34:41;100044.31;;;21.99;58.68
13800;BME280;6971;50.028;9.258;2022-07-11T16:39:42;100038.75;;;22.30;58.45
13800;BME280;6971;50.028;9.258;2022-07-11T16:45:02;100041.97;;;22.44;58.49
13800;BME280;6971;50.028;9.258;2022-07-11T16:50:22;100042.63;;;21.98;58.19
13800;BME280;6971;50.028;9.258;2022-07-11T16:55:23;100049.13;;;21.96;57.85
13800;BME280;6971;50.028;9.258;2022-07-11T17:00:24;100042.34;;;21.82;58.16
13800;BME280;6971;50.028;9.258;2022-07-11T17:05:25;100054.91;;;21.91;58.48
13800;BME280;6971;50.028;9.258;2022-07-11T17:10:27;100051.19;;;21.62;60.31
13800;BME280;6971;50.028;9.258;2022-07-11T17:15:28;100058.03;;;21.86;59.52
13800;BME280;6971;50.028;9.258;2022-07-11T17:20:29;100049.97;;;21.86;59.42
13800;BME280;6971;50.028;9.258;2022-07-11T17:25:30;100048.13;;;22.07;58.53
13800;BME280;6971;50.028;9.258;2022-07-11T17:30:31;100051.66;;;21.77;58.90
13800;BME280;6971;50.028;9.258;2022-07-11T17:35:32;100044.41;;;21.48;59.88
13800;BME280;6971;50.028;9.258;2022-07-11T17:40:34;100049.09;;;21.56;59.90
13800;BME280;6971;50.028;9.258;2022-07-11T17:45:36;100060.22;;;21.61;59.62
13800;BME280;6971;50.028;9.258;2022-07-11T17:50:44;100059.66;;;21.58;59.53
13800;BME280;6971;50.028;9.258;2022-07-11T17:55:46;100054.03;;;21.51;60.21
13800;BME280;6971;50.028;9.258;2022-07-11T18:00:46;100062.28;;;21.18;60.89
13800;BME280;6971;50.028;9.258;2022-07-11T18:05:48;100062.38;;;21.07;61.26
13800;BME280;6971;50.028;9.258;2022-07-11T18:10:57;100055.56;;;21.03;61.34
13800;BME280;6971;50.028;9.258;2022-07-11T18:15:59;100069.34;;;20.88;62.69
13800;BME280;6971;50.028;9.258;2022-07-11T18:21:00;100071.50;;;20.73;62.87
13800;BME280;6971;50.028;9.258;2022-07-11T18:26:02;100063.25;;;20.55;64.33
13800;BME280;6971;50.028;9.258;2022-07-11T18:31:04;100073.13;;;20.33;64.93
13800;BME280;6971;50.028;9.258;2022-07-11T18:36:05;100075.22;;;19.96;66.63
13800;BME280;6971;50.028;9.258;2022-07-11T18:41:25;100080.16;;;19.80;69.56
13800;BME280;6971;50.028;9.258;2022-07-11T18:46:27;100082.03;;;19.56;70.77
13800;BME280;6971;50.028;9.258;2022-07-11T18:51:28;100091.91;;;19.44;72.16
13800;BME280;6971;50.028;9.258;2022-07-11T18:56:30;100096.78;;;19.16;74.21
13800;BME280;6971;50.028;9.258;2022-07-11T19:01:32;100087.31;;;18.78;76.37
13800;BME280;6971;50.028;9.258;2022-07-11T19:06:32;100093.66;;;18.41;78.50
13800;BME280;6971;50.028;9.258;2022-07-11T19:11:34;100090.78;;;18.08;80.84
13800;BME280;6971;50.028;9.258;2022-07-11T19:16:35;100097.66;;;17.75;83.87
13800;BME280;6971;50.028;9.258;2022-07-11T19:21:36;100096.34;;;17.43;86.30
13800;BME280;6971;50.028;9.258;2022-07-11T19:26:37;100099.84;;;17.19;88.74
13800;BME280;6971;50.028;9.258;2022-07-11T19:31:38;100112.28;;;16.93;90.87
13800;BME280;6971;50.028;9.258;2022-07-11T19:36:39;100118.56;;;16.66;93.63
13800;BME280;6971;50.028;9.258;2022-07-11T19:42:02;100133.84;;;16.36;94.96
13800;BME280;6971;50.028;9.258;2022-07-11T19:47:03;100146.22;;;16.10;97.14
13800;BME280;6971;50.028;9.258;2022-07-11T19:52:04;100144.47;;;15.81;99.64
13800;BME280;6971;50.028;9.258;2022-07-11T19:57:05;100153.81;;;15.59;100.00
13800;BME280;6971;50.028;9.258;2022-07-11T20:02:25;100143.81;;;15.35;100.00
13800;BME280;6971;50.028;9.258;2022-07-11T20:07:26;100147.78;;;15.13;100.00
13800;BME280;6971;50.028;9.258;2022-07-11T20:12:28;100140.31;;;14.91;100.00
13800;BME280;6971;50.028;9.258;2022-07-11T20:17:36;100142.09;;;14.76;100.00
13800;BME280;6971;50.028;9.258;2022-07-11T20:22:37;100138.25;;;14.66;100.00
13800;BME280;6971;50.028;9.258;2022-07-11T20:27:40;100149.84;;;14.48;100.00
13800;BME280;6971;50.028;9.258;2022-07-11T20:32:41;100151.53;;;14.35;100.00
13800;BME280;6971;50.028;9.258;2022-07-11T20:37:43;100164.53;;;14.23;100.00
13800;BME280;6971;50.028;9.258;2022-07-11T20:42:44;100156.59;;;14.23;100.00
13800;BME280;6971;50.028;9.258;2022-07-11T20:47:46;100152.94;;;14.10;100.00
13800;BME280;6971;50.028;9.258;2022-07-11T20:52:47;100153.66;;;13.98;100.00
13800;BME280;6971;50.028;9.258;2022-07-11T20:57:48;100171.06;;;13.86;100.00
13800;BME280;6971;50.028;9.258;2022-07-11T21:02:49;100161.78;;;13.78;100.00
13800;BME280;6971;50.028;9.258;2022-07-11T21:07:50;100165.28;;;13.63;100.00
13800;BME280;6971;50.028;9.258;2022-07-11T21:12:51;100166.66;;;13.54;100.00
13800;BME280;6971;50.028;9.258;2022-07-11T21:18:06;100170.69;;;13.43;100.00
13800;BME280;6971;50.028;9.258;2022-07-11T21:23:06;100170.69;;;13.43;100.00
13800;BME280;6971;50.028;9.258;2022-07-11T21:28:08;100167.78;;;13.32;100.00
13800;BME280;6971;50.028;9.258;2022-07-11T21:33:09;100171.75;;;13.23;100.00
13800;BME280;6971;50.028;9.258;2022-07-11T21:38:10;100160.63;;;13.16;100.00
13800;BME280;6971;50.028;9.258;2022-07-11T21:43:11;100169.94;;;13.08;100.00
13800;BME280;6971;50.028;9.258;2022-07-11T21:48:14;100170.66;;;12.93;100.00
13800;BME280;6971;50.028;9.258;2022-07-11T21:53:15;100173.44;;;12.90;100.00
13800;BME280;6971;50.028;9.258;2022-07-11T21:58:16;100173.09;;;12.81;100.00
13800;BME280;6971;50.028;9.258;2022-07-11T22:03:17;100174.25;;;12.75;100.00
13800;BME280;6971;50.028;9.258;2022-07-11T22:08:18;100185.78;;;12.74;100.00
13800;BME280;6971;50.028;9.258;2022-07-11T22:13:29;100185.66;;;12.75;100.00
13800;BME280;6971;50.028;9.258;2022-07-11T22:18:30;100185.59;;;12.77;100.00
13800;BME280;6971;50.028;9.258;2022-07-11T22:23:32;100189.03;;;12.79;100.00
13800;BME280;6971;50.028;9.258;2022-07-11T22:28:33;100191.81;;;12.93;100.00
13800;BME280;6971;50.028;9.258;2022-07-11T22:33:34;100188.53;;;13.06;100.00
13800;BME280;6971;50.028;9.258;2022-07-11T22:38:35;100194.03;;;13.19;100.00
13800;BME280;6971;50.028;9.258;2022-07-11T22:43:36;100181.97;;;13.31;100.00
13800;BME280;6971;50.028;9.258;2022-07-11T22:48:38;100185.22;;;13.36;100.00
13800;BME280;6971;50.028;9.258;2022-07-11T22:53:39;100181.47;;;13.40;100.00
13800;BME280;6971;50.028;9.258;2022-07-11T22:58:39;100182.84;;;13.48;100.00
13800;BME280;6971;50.028;9.258;2022-07-11T23:03:41;100186.28;;;13.50;100.00
13800;BME280;6971;50.028;9.258;2022-07-11T23:08:42;100192.63;;;13.63;100.00
13800;BME280;6971;50.028;9.258;2022-07-11T23:13:43;100188.28;;;13.62;100.00
13800;BME280;6971;50.028;9.258;2022-07-11T23:18:45;100188.00;;;13.83;100.00
13800;BME280;6971;50.028;9.258;2022-07-11T23:23:46;100191.88;;;13.93;100.00
13800;BME280;6971;50.028;9.258;2022-07-11T23:28:47;100185.94;;;13.88;100.00
13800;BME280;6971;50.028;9.258;2022-07-11T23:33:48;100183.28;;;13.88;100.00
13800;BME280;6971;50.028;9.258;2022-07-11T23:38:48;100195.41;;;14.08;100.00
13800;BME280;6971;50.028;9.258;2022-07-11T23:43:50;100191.00;;;14.09;100.00
13800;BME280;6971;50.028;9.258;2022-07-11T23:48:51;100195.53;;;14.07;100.00
13800;BME280;6971;50.028;9.258;2022-07-11T23:53:51;100196.97;;;14.13;100.00
13800;BME280;6971;50.028;9.258;2022-07-11T23:58:53;100199.88;;;14.08;100.00
